Time;durP1;ratioP1;P1;durP2;ratioP2;P2;SDS_P1;SDS_P2;PMS_P1;PMS_P2;Temp;Humidity;BMP_temperature;BMP_pressure;BME280_temperature;BME280_humidity;BME280_pressure;Samples;Min_cycle;Max_cycle;Signal;HPM_P1;HPM_P2
2022/02/18 00:01:52;;;;;;;114.95;74.93;;;11.10;96.90;;;;;;5054085;28;20187;-87
2022/02/18 00:04:56;;;;;;;104.13;72.55;;;11.00;97.30;;;;;;5053972;28;20547;-88
2022/02/18 00:08:00;;;;;;;105.80;71.85;;;11.00;97.40;;;;;;5053637;28;20044;-87
2022/02/18 00:11:06;;;;;;;104.38;71.68;;;11.10;97.30;;;;;;5053779;28;20052;-87
2022/02/18 00:14:10;;;;;;;96.40;66.10;;;11.20;97.00;;;;;;5053434;28;20416;-87
2022/02/18 00:17:14;;;;;;;103.07;65.63;;;11.20;97.10;;;;;;5052939;28;20044;-87
2022/02/18 00:20:19;;;;;;;104.03;65.50;;;11.30;96.90;;;;;;5053595;28;20052;-87
2022/02/18 00:23:23;;;;;;;92.43;65.05;;;11.30;96.90;;;;;;5053683;28;20044;-87
2022/02/18 00:26:27;;;;;;;92.40;65.88;;;11.40;96.90;;;;;;5053305;28;20107;-87
2022/02/18 00:29:31;;;;;;;88.13;66.00;;;11.40;96.80;;;;;;5052571;28;20044;-87
2022/02/18 00:32:37;;;;;;;91.82;65.25;;;11.30;96.90;;;;;;5053401;28;20052;-87
2022/02/18 00:35:41;;;;;;;99.43;62.50;;;11.20;97.10;;;;;;5052695;28;20393;-87
2022/02/18 00:38:46;;;;;;;94.80;63.15;;;11.20;97.30;;;;;;5053189;28;20056;-87
2022/02/18 00:41:50;;;;;;;87.97;64.32;;;11.20;97.30;;;;;;5060019;28;20159;-86
2022/02/18 00:44:55;;;;;;;96.05;63.28;;;11.30;97.20;;;;;;5061983;28;20040;-87
2022/02/18 00:48:00;;;;;;;96.38;63.00;;;11.30;97.20;;;;;;5061138;28;20044;-88
2022/02/18 00:51:06;;;;;;;94.93;63.40;;;11.30;97.20;;;;;;5057074;28;20072;-87
2022/02/18 00:54:10;;;;;;;98.68;64.57;;;11.30;97.20;;;;;;5058201;28;20059;-87
2022/02/18 00:57:14;;;;;;;102.18;67.80;;;11.30;97.20;;;;;;5058450;28;20039;-87
2022/02/18 01:00:20;;;;;;;101.88;67.53;;;11.20;97.40;;;;;;5057264;28;20048;-87
2022/02/18 01:03:24;;;;;;;94.63;66.03;;;11.00;97.70;;;;;;5058595;28;20283;-88
2022/02/18 01:06:28;;;;;;;99.25;66.57;;;11.10;98.10;;;;;;5045983;28;20704;-88
2022/02/18 01:09:33;;;;;;;97.03;66.25;;;11.10;98.00;;;;;;5057438;28;20044;-88
2022/02/18 01:12:37;;;;;;;95.57;63.00;;;11.20;97.80;;;;;;5057240;28;20052;-88
2022/02/18 01:15:41;;;;;;;93.82;64.57;;;11.20;97.80;;;;;;5057567;28;20043;-87
2022/02/18 01:18:46;;;;;;;97.30;64.28;;;11.20;97.90;;;;;;5057574;28;20044;-88
2022/02/18 01:21:50;;;;;;;95.72;65.03;;;11.30;97.90;;;;;;5057311;28;20044;-88
2022/02/18 01:24:54;;;;;;;97.05;66.05;;;11.30;97.70;;;;;;5057798;28;20040;-87
2022/02/18 01:27:58;;;;;;;86.88;59.53;;;11.20;97.90;;;;;;5056843;28;20056;-87
2022/02/18 01:31:02;;;;;;;93.97;61.83;;;11.20;98.20;;;;;;5056283;28;20040;-88
2022/02/18 01:34:07;;;;;;;93.72;64.13;;;11.20;98.00;;;;;;5056686;28;20052;-88
2022/02/18 01:37:11;;;;;;;88.15;62.47;;;11.10;97.90;;;;;;5057165;28;20040;-88
2022/02/18 01:40:16;;;;;;;100.40;65.13;;;11.00;98.20;;;;;;5058153;28;20048;-88
2022/02/18 01:43:20;;;;;;;91.30;64.65;;;11.00;98.60;;;;;;5057471;28;20044;-87
2022/02/18 01:46:24;;;;;;;90.50;60.22;;;11.10;98.40;;;;;;5057073;28;20043;-87
2022/02/18 01:49:28;;;;;;;86.93;61.83;;;11.20;98.20;;;;;;5057488;28;20060;-87
2022/02/18 01:52:45;;;;;;;89.78;63.40;;;11.30;97.90;;;;;;5057216;28;20047;-88
2022/02/18 01:55:49;;;;;;;89.80;58.25;;;11.30;97.80;;;;;;5056012;28;20048;-88
2022/02/18 01:58:53;;;;;;;86.78;58.30;;;11.20;98.10;;;;;;5055114;28;20068;-87
2022/02/18 02:01:58;;;;;;;82.15;57.25;;;11.20;98.30;;;;;;5044528;28;20071;-87
2022/02/18 02:05:06;;;;;;;84.88;55.40;;;11.20;98.30;;;;;;5044386;28;20047;-88
2022/02/18 02:08:12;;;;;;;85.55;57.05;;;11.20;98.40;;;;;;5057325;28;20044;-88
2022/02/18 02:11:22;;;;;;;83.75;56.88;;;11.30;98.30;;;;;;5056581;28;20060;-88
2022/02/18 02:14:26;;;;;;;83.68;54.22;;;11.30;98.40;;;;;;5057147;28;20055;-88
2022/02/18 02:17:30;;;;;;;74.68;52.15;;;11.40;98.30;;;;;;5056839;28;20369;-88
2022/02/18 02:20:34;;;;;;;84.82;54.03;;;11.50;98.20;;;;;;5056730;28;20036;-88
2022/02/18 02:23:39;;;;;;;69.90;50.55;;;11.50;97.90;;;;;;5056262;28;20389;-87
2022/02/18 02:26:43;;;;;;;70.15;47.80;;;11.60;98.00;;;;;;5044544;28;20048;-88
2022/02/18 02:29:48;;;;;;;63.60;46.85;;;11.60;98.00;;;;;;5056943;28;20044;-88
2022/02/18 02:32:53;;;;;;;61.20;45.13;;;11.50;97.80;;;;;;5055896;28;20059;-87
2022/02/18 02:35:57;;;;;;;60.80;42.25;;;11.40;98.00;;;;;;5055984;28;20040;-88
2022/02/18 02:39:01;;;;;;;57.97;42.03;;;11.50;98.20;;;;;;5055289;28;20404;-88
2022/02/18 02:42:06;;;;;;;55.90;41.97;;;11.50;98.00;;;;;;5054924;28;20496;-88
2022/02/18 02:45:12;;;;;;;59.72;40.47;;;11.50;98.10;;;;;;5055362;28;20068;-88
2022/02/18 02:48:15;;;;;;;60.83;42.40;;;11.50;97.80;;;;;;5043783;28;20207;-88
2022/02/18 02:51:22;;;;;;;54.33;39.85;;;11.60;97.60;;;;;;5055824;28;20044;-88
2022/02/18 02:54:28;;;;;;;60.85;40.75;;;11.50;97.80;;;;;;5043803;28;20052;-89
2022/02/18 02:57:48;;;;;;;67.18;40.50;;;11.50;97.90;;;;;;5055073;28;20043;-88
2022/02/18 03:00:52;;;;;;;59.35;37.88;;;11.50;97.90;;;;;;5054622;28;20047;-88
2022/02/18 03:04:11;;;;;;;53.90;37.58;;;11.50;97.80;;;;;;5055163;28;20040;-88
2022/02/18 03:07:18;;;;;;;55.35;37.30;;;11.50;97.90;;;;;;5054671;28;20040;-87
2022/02/18 03:10:29;;;;;;;54.33;36.65;;;11.50;98.00;;;;;;5055021;28;20048;-89
2022/02/18 03:13:35;;;;;;;48.25;35.33;;;11.40;97.90;;;;;;5055153;28;20496;-88
2022/02/18 03:16:41;;;;;;;52.72;36.20;;;11.40;98.20;;;;;;5055247;28;20044;-89
2022/02/18 03:19:46;;;;;;;54.92;37.42;;;11.40;98.30;;;;;;5054356;28;20397;-86
2022/02/18 03:22:59;;;;;;;58.17;37.92;;;11.40;98.30;;;;;;5055277;28;20417;-86
2022/02/18 03:26:06;;;;;;;53.97;38.13;;;11.40;98.10;;;;;;5055651;28;20041;-86
2022/02/18 03:29:11;;;;;;;53.33;39.72;;;11.40;98.20;;;;;;5055782;28;20048;-86
2022/02/18 03:32:41;;;;;;;54.03;39.63;;;11.40;98.30;;;;;;5055857;28;20040;-87
2022/02/18 03:35:46;;;;;;;57.72;39.50;;;11.50;98.30;;;;;;5055070;28;20044;-87
2022/02/18 03:38:54;;;;;;;61.38;41.45;;;11.50;98.20;;;;;;5043515;28;20044;-87
2022/02/18 03:41:58;;;;;;;57.45;42.60;;;11.50;98.30;;;;;;5044410;28;20040;-87
2022/02/18 03:45:05;;;;;;;66.03;42.92;;;11.60;98.20;;;;;;5055561;28;20044;-87
2022/02/18 03:48:09;;;;;;;59.55;44.20;;;11.60;98.00;;;;;;5054861;28;20040;-87
2022/02/18 03:51:20;;;;;;;73.13;45.85;;;11.70;97.90;;;;;;5058169;28;20060;-87
2022/02/18 03:54:25;;;;;;;65.25;42.58;;;11.70;97.90;;;;;;5057607;28;20047;-88
2022/02/18 03:57:30;;;;;;;66.68;44.63;;;11.70;98.00;;;;;;5060355;28;20054;-88
2022/02/18 04:00:35;;;;;;;59.30;43.25;;;11.70;97.90;;;;;;5058507;28;20044;-87
2022/02/18 04:03:42;;;;;;;66.93;45.47;;;11.70;97.90;;;;;;5062888;28;20052;-87
2022/02/18 04:07:05;;;;;;;60.90;43.10;;;11.60;98.00;;;;;;5059443;28;20044;-87
2022/02/18 04:10:17;;;;;;;60.10;41.78;;;11.60;98.10;;;;;;5048290;28;20040;-87
2022/02/18 04:13:23;;;;;;;50.75;37.22;;;11.60;98.40;;;;;;5058479;28;20047;-87
2022/02/18 04:16:28;;;;;;;50.75;36.00;;;11.70;98.40;;;;;;5058652;28;20044;-87
2022/02/18 04:19:38;;;;;;;;;;;11.80;98.20;;;;;;5058471;28;20056;-88
2022/02/18 04:22:43;;;;;;;54.63;39.58;;;11.70;98.20;;;;;;5058242;28;19916;-87
2022/02/18 04:25:50;;;;;;;46.75;35.58;;;11.70;98.20;;;;;;5036192;28;20064;-87
2022/02/18 04:28:54;;;;;;;45.63;33.15;;;11.60;98.50;;;;;;5058004;28;20044;-89
2022/02/18 04:31:58;;;;;;;45.97;32.05;;;11.60;98.50;;;;;;5059499;28;20048;-88
2022/02/18 04:35:02;;;;;;;48.70;31.90;;;11.50;98.60;;;;;;5056816;28;20056;-88
2022/02/18 04:38:07;;;;;;;45.38;30.83;;;11.60;98.60;;;;;;5057415;28;20048;-88
2022/02/18 04:41:11;;;;;;;44.47;29.90;;;11.50;98.70;;;;;;5045520;28;20067;-88
2022/02/18 04:44:16;;;;;;;47.15;30.25;;;11.50;98.80;;;;;;5057326;28;20036;-88
2022/02/18 04:47:21;;;;;;;43.42;29.95;;;11.50;98.90;;;;;;5057053;28;20515;-87
2022/02/18 04:50:25;;;;;;;39.30;29.10;;;11.50;98.90;;;;;;5056906;28;20048;-88
2022/02/18 04:53:29;;;;;;;43.67;28.08;;;11.50;99.10;;;;;;5056726;28;20079;-88
2022/02/18 04:56:35;;;;;;;40.88;27.48;;;11.60;99.20;;;;;;5056756;28;20040;-88
2022/02/18 04:59:40;;;;;;;47.17;30.15;;;11.70;99.10;;;;;;5046871;28;20052;-87
2022/02/18 05:02:44;;;;;;;42.08;30.08;;;11.70;99.00;;;;;;5060080;28;20040;-86
2022/02/18 05:05:48;;;;;;;44.30;28.60;;;11.70;99.20;;;;;;5059517;28;20039;-88
2022/02/18 05:08:52;;;;;;;37.88;26.88;;;11.70;99.30;;;;;;5062707;28;20040;-87
2022/02/18 05:11:56;;;;;;;35.85;24.88;;;11.70;99.20;;;;;;5063075;28;20516;-88
2022/02/18 05:15:01;;;;;;;39.65;26.08;;;11.70;99.20;;;;;;5063609;28;20056;-88
2022/02/18 05:18:06;;;;;;;37.33;23.83;;;11.70;99.30;;;;;;5062830;28;20036;-88
2022/02/18 05:21:09;;;;;;;36.92;22.50;;;11.70;99.50;;;;;;5062525;28;20048;-88
2022/02/18 05:24:13;;;;;;;26.63;20.65;;;11.70;99.70;;;;;;5060739;28;20495;-87
2022/02/18 05:27:18;;;;;;;29.67;19.48;;;11.70;99.80;;;;;;5060519;28;20048;-87
2022/02/18 05:30:22;;;;;;;26.80;18.75;;;11.70;99.80;;;;;;5047667;28;20040;-88
2022/02/18 05:33:27;;;;;;;24.73;17.58;;;11.70;99.90;;;;;;5059973;28;20044;-87
2022/02/18 05:36:32;;;;;;;24.83;17.77;;;11.70;99.90;;;;;;5058931;28;20040;-88
2022/02/18 05:39:36;;;;;;;26.05;15.73;;;11.70;99.90;;;;;;5057820;28;20496;-88
2022/02/18 05:42:41;;;;;;;24.73;15.23;;;11.70;99.90;;;;;;5045478;28;20068;-87
2022/02/18 05:45:49;;;;;;;20.75;13.75;;;11.70;99.90;;;;;;5046798;28;20055;-88
2022/02/18 05:48:53;;;;;;;22.00;14.32;;;11.80;99.90;;;;;;5058117;28;20588;-87
2022/02/18 05:51:58;;;;;;;19.02;13.57;;;11.80;99.70;;;;;;5058943;28;20048;-87
2022/02/18 05:55:04;;;;;;;24.73;14.07;;;11.80;99.70;;;;;;5063044;28;20566;-88
2022/02/18 05:58:09;;;;;;;20.90;13.80;;;11.80;99.70;;;;;;5065819;28;20043;-86
2022/02/18 06:01:14;;;;;;;23.77;13.85;;;11.80;99.60;;;;;;5062072;28;20047;-88
2022/02/18 06:04:18;;;;;;;20.85;13.18;;;11.70;99.60;;;;;;5059947;28;20056;-88
2022/02/18 06:07:22;;;;;;;23.52;14.77;;;11.80;99.50;;;;;;5061561;28;20040;-87
2022/02/18 06:10:26;;;;;;;22.15;13.60;;;11.80;99.50;;;;;;5067701;28;20056;-87
2022/02/18 06:13:30;;;;;;;20.88;14.13;;;11.80;99.40;;;;;;5063620;28;20060;-88
2022/02/18 06:16:39;;;;;;;27.77;15.70;;;11.90;99.40;;;;;;5069481;28;20039;-89
2022/02/18 06:19:43;;;;;;;23.77;15.30;;;11.90;99.30;;;;;;5062779;28;20056;-88
2022/02/18 06:22:48;;;;;;;29.90;15.65;;;11.90;99.30;;;;;;5060733;28;20087;-87
2022/02/18 06:25:52;;;;;;;29.42;16.38;;;11.90;99.30;;;;;;5060992;28;20044;-88
2022/02/18 06:28:56;;;;;;;28.10;16.02;;;11.90;99.30;;;;;;5061734;28;20111;-88
2022/02/18 06:32:02;;;;;;;31.70;17.25;;;11.90;99.30;;;;;;5067596;28;20035;-89
2022/02/18 06:35:11;;;;;;;33.30;17.77;;;12.00;99.30;;;;;;5067768;28;20043;-89
2022/02/18 06:38:16;;;;;;;38.90;18.80;;;12.00;99.20;;;;;;5059309;28;20053;-90
2022/02/18 06:41:21;;;;;;;35.53;19.17;;;12.00;99.30;;;;;;5063763;28;20476;-90
2022/02/18 06:44:26;;;;;;;26.60;18.25;;;12.00;99.30;;;;;;5061629;28;20044;-89
2022/02/18 06:47:30;;;;;;;30.90;18.08;;;12.00;99.30;;;;;;5059756;28;20052;-90
2022/02/18 06:50:35;;;;;;;33.80;19.35;;;12.10;99.50;;;;;;5062552;28;20401;-88
2022/02/18 06:53:40;;;;;;;30.98;19.08;;;12.10;99.50;;;;;;5061594;28;20405;-88
2022/02/18 06:56:44;;;;;;;32.13;18.73;;;12.10;99.50;;;;;;5059926;28;20047;-90
2022/02/18 06:59:51;;;;;;;30.23;18.90;;;12.10;99.20;;;;;;5060745;28;20301;-89
2022/02/18 07:02:55;;;;;;;28.77;19.17;;;12.10;99.00;;;;;;5059255;28;20052;-89
2022/02/18 07:06:02;;;;;;;35.67;18.92;;;12.10;99.10;;;;;;5057796;28;20543;-87
2022/02/18 07:09:11;;;;;;;29.55;18.80;;;12.10;99.20;;;;;;5063088;28;20046;-90
2022/02/18 07:12:16;;;;;;;33.20;19.73;;;12.10;99.30;;;;;;5058050;28;20107;-89
2022/02/18 07:15:21;;;;;;;38.20;19.02;;;12.10;99.40;;;;;;5061490;28;20048;-90
2022/02/18 07:18:25;;;;;;;32.53;20.33;;;12.20;99.50;;;;;;5057619;28;20044;-80
2022/02/18 07:21:33;;;;;;;32.28;17.55;;;12.20;99.70;;;;;;5056690;28;20056;-80
2022/02/18 07:24:38;;;;;;;30.30;18.48;;;12.30;99.50;;;;;;5054919;28;20067;-77
2022/02/18 07:27:43;;;;;;;31.35;18.05;;;12.40;99.40;;;;;;5055542;28;20047;-81
2022/02/18 07:30:48;;;;;;;34.95;17.55;;;12.40;99.30;;;;;;5058919;28;20361;-79
2022/02/18 07:33:52;;;;;;;37.83;18.27;;;12.40;99.30;;;;;;5045563;28;20056;-79
2022/02/18 07:36:57;;;;;;;34.60;17.08;;;12.50;99.40;;;;;;5057136;28;20055;-78
2022/02/18 07:40:01;;;;;;;36.00;17.45;;;12.50;99.40;;;;;;5056311;28;20044;-76
2022/02/18 07:43:05;;;;;;;26.33;16.63;;;12.50;99.50;;;;;;5055890;28;20055;-75
2022/02/18 07:46:09;;;;;;;25.60;14.18;;;12.50;99.60;;;;;;5055650;28;20055;-77
2022/02/18 07:49:14;;;;;;;23.13;14.55;;;12.70;99.70;;;;;;5056497;28;20075;-76
2022/02/18 07:52:20;;;;;;;25.55;13.02;;;12.70;99.60;;;;;;5055300;28;20060;-74
2022/02/18 07:55:26;;;;;;;19.70;11.48;;;12.80;99.60;;;;;;5056217;28;20051;-75
2022/02/18 07:58:30;;;;;;;20.50;10.32;;;12.90;99.60;;;;;;5054752;28;20072;-76
2022/02/18 08:01:36;;;;;;;19.75;10.02;;;13.00;99.30;;;;;;5055137;28;20052;-75
2022/02/18 08:04:42;;;;;;;16.73;9.98;;;13.10;99.30;;;;;;5054867;28;20052;-75
2022/02/18 08:07:46;;;;;;;19.23;8.98;;;13.10;99.20;;;;;;5058175;28;20056;-77
2022/02/18 08:10:51;;;;;;;19.85;9.18;;;13.20;98.90;;;;;;5056478;28;20081;-78
2022/02/18 08:13:56;;;;;;;19.13;9.60;;;13.30;98.70;;;;;;5054092;28;20052;-76
2022/02/18 08:17:00;;;;;;;26.67;9.02;;;13.40;98.60;;;;;;5055899;28;20080;-77
2022/02/18 08:20:07;;;;;;;28.63;7.82;;;13.50;98.30;;;;;;5057118;28;20048;-79
2022/02/18 08:23:12;;;;;;;15.52;7.70;;;13.50;98.30;;;;;;5055124;28;20051;-75
2022/02/18 08:26:17;;;;;;;19.13;8.13;;;13.60;98.10;;;;;;5054534;28;20048;-77
2022/02/18 08:29:23;;;;;;;19.95;8.27;;;13.70;98.00;;;;;;5054172;28;20048;-75
2022/02/18 08:32:27;;;;;;;18.60;7.45;;;13.80;97.80;;;;;;5055497;28;20044;-77
2022/02/18 08:35:34;;;;;;;16.08;7.20;;;13.90;97.70;;;;;;5054308;28;20056;-77
2022/02/18 08:38:40;;;;;;;16.52;6.60;;;13.90;97.80;;;;;;5053086;28;20391;-76
2022/02/18 08:41:44;;;;;;;12.40;6.43;;;14.00;97.80;;;;;;5054493;28;20500;-74
2022/02/18 08:44:48;;;;;;;15.35;5.80;;;14.10;97.50;;;;;;5053909;28;20048;-76
2022/02/18 08:47:52;;;;;;;11.40;5.68;;;14.20;97.20;;;;;;5055029;28;20048;-76
2022/02/18 08:50:57;;;;;;;16.52;5.57;;;14.30;97.20;;;;;;5055357;28;20075;-78
2022/02/18 08:54:01;;;;;;;13.60;5.13;;;14.30;97.00;;;;;;5055598;28;20060;-78
2022/02/18 08:57:07;;;;;;;9.00;4.47;;;14.40;96.90;;;;;;5055057;28;20059;-74
2022/02/18 09:00:13;;;;;;;16.50;7.90;;;14.50;96.80;;;;;;5055525;28;20044;-78
2022/02/18 09:03:17;;;;;;;19.13;6.38;;;14.70;97.00;;;;;;5033500;28;20056;-79
2022/02/18 09:06:22;;;;;;;14.88;6.00;;;14.90;97.90;;;;;;5053764;28;20158;-76
2022/02/18 09:09:28;;;;;;;8.68;5.15;;;15.00;95.90;;;;;;5040503;28;20048;-71
2022/02/18 09:12:37;;;;;;;20.13;5.93;;;15.10;95.90;;;;;;5053080;28;20044;-74
2022/02/18 09:15:41;;;;;;;12.80;5.75;;;15.30;96.20;;;;;;5054062;28;20056;-75
2022/02/18 09:18:58;;;;;;;11.95;6.22;;;15.30;95.90;;;;;;5053344;28;20036;-74
2022/02/18 09:22:02;;;;;;;13.27;5.90;;;15.30;95.20;;;;;;5052549;28;20043;-75
2022/02/18 09:25:07;;;;;;;17.23;5.97;;;15.40;95.40;;;;;;5053648;28;20036;-76
2022/02/18 09:28:11;;;;;;;13.93;5.25;;;15.60;95.60;;;;;;5053240;28;20183;-76
2022/02/18 09:31:15;;;;;;;10.73;4.60;;;15.80;95.10;;;;;;5053695;28;20718;-77
2022/02/18 09:34:21;;;;;;;10.75;4.78;;;15.90;95.20;;;;;;5054547;28;20048;-77
2022/02/18 09:37:25;;;;;;;8.43;3.80;;;16.00;95.10;;;;;;5055207;28;20056;-79
2022/02/18 09:40:29;;;;;;;12.15;4.20;;;16.00;95.20;;;;;;5056819;28;20040;-77
2022/02/18 09:43:35;;;;;;;16.42;4.38;;;16.10;95.20;;;;;;5054285;28;20373;-79
2022/02/18 09:46:41;;;;;;;7.50;3.92;;;16.10;95.10;;;;;;5056674;28;20024;-77
2022/02/18 09:49:52;;;;;;;12.45;4.45;;;16.10;95.20;;;;;;5054693;28;20048;-74
2022/02/18 09:52:57;;;;;;;;;;;16.20;95.10;;;;;;5057287;28;20040;-76
2022/02/18 09:56:03;;;;;;;11.20;4.35;;;16.20;94.90;;;;;;5055755;28;19924;-76
2022/02/18 09:59:13;;;;;;;10.38;4.32;;;16.20;95.00;;;;;;5054333;28;20044;-76
2022/02/18 10:02:19;;;;;;;13.80;4.88;;;16.20;95.00;;;;;;5056222;28;20052;-77
2022/02/18 10:05:23;;;;;;;13.60;4.78;;;16.30;94.90;;;;;;5055698;28;20056;-82
2022/02/18 10:08:29;;;;;;;14.07;5.38;;;16.30;94.90;;;;;;5060327;28;20048;-82
2022/02/18 10:11:55;;;;;;;15.45;5.82;;;16.30;94.90;;;;;;5053840;28;20048;-79
2022/02/18 10:15:08;;;;;;;16.65;6.28;;;16.30;94.90;;;;;;5054242;28;20060;-79
2022/02/18 10:18:13;;;;;;;14.88;6.32;;;16.30;94.90;;;;;;5054441;28;20043;-76
2022/02/18 10:21:29;;;;;;;14.10;6.32;;;16.20;94.90;;;;;;5052769;28;20044;-78
2022/02/18 10:24:38;;;;;;;18.30;6.95;;;16.20;95.00;;;;;;5041263;28;20044;-81
2022/02/18 10:27:47;;;;;;;11.02;5.55;;;16.20;94.80;;;;;;5053056;28;20048;-80
2022/02/18 10:31:01;;;;;;;16.85;6.82;;;16.10;94.90;;;;;;5042657;28;20099;-80
2022/02/18 10:34:08;;;;;;;16.63;7.25;;;16.10;95.10;;;;;;5051920;28;20047;-76
2022/02/18 10:37:12;;;;;;;14.30;6.43;;;16.10;95.10;;;;;;5051689;28;20404;-76
2022/02/18 10:40:18;;;;;;;13.40;6.20;;;16.00;95.10;;;;;;5054252;28;20048;-82
2022/02/18 10:43:25;;;;;;;14.32;7.50;;;16.00;95.10;;;;;;5054480;28;20048;-80
2022/02/18 10:46:55;;;;;;;13.75;7.32;;;16.00;95.10;;;;;;5050645;28;20413;-80
2022/02/18 10:49:59;;;;;;;13.55;5.82;;;16.00;95.10;;;;;;5050602;28;20052;-75
2022/02/18 10:53:14;;;;;;;16.02;5.90;;;16.00;95.20;;;;;;5049943;28;20147;-75
2022/02/18 10:56:20;;;;;;;10.57;4.97;;;16.00;95.20;;;;;;5050422;28;20076;-76
2022/02/18 10:59:31;;;;;;;9.82;4.88;;;15.90;95.30;;;;;;5038191;28;20036;-77
2022/02/18 11:02:38;;;;;;;11.90;6.40;;;16.00;95.40;;;;;;5049539;28;20072;-77
2022/02/18 11:05:42;;;;;;;13.65;5.78;;;16.00;95.30;;;;;;5050517;28;20287;-78
2022/02/18 11:08:55;;;;;;;13.13;5.20;;;16.00;95.20;;;;;;5049268;28;20048;-77
2022/02/18 11:12:07;;;;;;;14.00;4.43;;;16.10;95.10;;;;;;5049837;28;20060;-77
2022/02/18 11:15:12;;;;;;;12.43;4.30;;;16.10;95.00;;;;;;5049061;28;20052;-76
2022/02/18 11:18:17;;;;;;;8.18;3.40;;;16.20;94.80;;;;;;5050276;28;20044;-76
2022/02/18 11:21:22;;;;;;;13.48;4.18;;;16.30;94.70;;;;;;5049782;28;20048;-81
2022/02/18 11:24:25;;;;;;;8.50;3.78;;;16.30;94.60;;;;;;5050492;28;20048;-79
2022/02/18 11:27:29;;;;;;;10.75;3.85;;;16.40;94.70;;;;;;5050506;28;20052;-78
2022/02/18 11:30:39;;;;;;;10.95;3.97;;;16.50;94.60;;;;;;5048948;28;20044;-78
2022/02/18 11:34:24;;;;;;;9.95;4.45;;;16.50;94.40;;;;;;5049938;28;20143;-74
2022/02/18 11:37:46;;;;;;;19.23;4.90;;;16.60;94.40;;;;;;5043794;28;20060;-76
2022/02/18 11:40:53;;;;;;;;;;;16.60;94.40;;;;;;5051014;28;20099;-78
2022/02/18 11:44:00;;;;;;;11.45;4.35;;;16.70;94.40;;;;;;5050443;28;19979;-81
2022/02/18 11:47:12;;;;;;;9.55;3.25;;;16.70;94.50;;;;;;5049830;28;20040;-78
2022/02/18 11:50:19;;;;;;;10.75;2.90;;;16.70;94.40;;;;;;5050085;28;20512;-79
2022/02/18 11:53:49;;;;;;;13.50;3.17;;;16.70;94.40;;;;;;5050075;28;20048;-76
2022/02/18 11:57:04;;;;;;;13.13;3.55;;;16.70;94.40;;;;;;5049774;28;20055;-80
2022/02/18 12:00:10;;;;;;;11.10;3.50;;;16.80;94.30;;;;;;5049700;28;20488;-78
2022/02/18 12:03:23;;;;;;;8.63;3.30;;;16.80;94.30;;;;;;5049809;28;20055;-72
2022/02/18 12:06:27;;;;;;;11.70;4.05;;;16.80;94.20;;;;;;5048930;28;20044;-77
2022/02/18 12:09:49;;;;;;;16.27;6.55;;;16.90;94.40;;;;;;5049513;28;20056;-76
2022/02/18 12:13:06;;;;;;;20.27;4.90;;;16.90;94.30;;;;;;5048612;28;20396;-78
2022/02/18 12:16:12;;;;;;;12.73;3.40;;;16.90;94.40;;;;;;5053322;28;20056;-78
2022/02/18 12:19:24;;;;;;;12.55;3.33;;;16.90;94.50;;;;;;5053225;28;20115;-75
2022/02/18 12:22:34;;;;;;;8.75;4.00;;;16.90;94.50;;;;;;5053344;28;20472;-76
2022/02/18 12:25:38;;;;;;;14.25;4.18;;;16.90;94.50;;;;;;5053370;28;20048;-77
2022/02/18 12:28:44;;;;;;;7.88;4.07;;;16.90;94.50;;;;;;5052917;28;20055;-77
2022/02/18 12:31:53;;;;;;;10.68;4.53;;;16.90;94.60;;;;;;5053288;28;20056;-77
2022/02/18 12:35:02;;;;;;;9.82;4.25;;;16.90;94.60;;;;;;5052228;28;20124;-77
2022/02/18 12:38:08;;;;;;;7.78;3.58;;;16.90;94.60;;;;;;5053133;28;20040;-77
2022/02/18 12:41:14;;;;;;;7.45;3.58;;;16.90;94.60;;;;;;5053230;28;20393;-77
2022/02/18 12:44:19;;;;;;;10.52;3.60;;;16.90;94.60;;;;;;5052937;28;20056;-78
2022/02/18 12:47:28;;;;;;;10.32;3.90;;;16.90;94.60;;;;;;5052930;28;20036;-77
2022/02/18 12:50:36;;;;;;;11.43;4.00;;;16.90;94.60;;;;;;5052784;28;20080;-76
2022/02/18 12:53:46;;;;;;;16.70;4.70;;;16.90;94.40;;;;;;5051542;28;20040;-77
2022/02/18 12:56:55;;;;;;;10.18;3.58;;;16.90;94.40;;;;;;5052397;28;20076;-77
2022/02/18 13:00:00;;;;;;;17.65;4.03;;;16.90;94.40;;;;;;5052436;28;20056;-77
2022/02/18 13:03:09;;;;;;;8.75;3.80;;;16.90;94.40;;;;;;5052400;28;20067;-77
2022/02/18 13:06:13;;;;;;;16.45;4.07;;;16.80;94.40;;;;;;5052537;28;20047;-77
2022/02/18 13:09:17;;;;;;;10.82;3.90;;;16.80;94.20;;;;;;5052785;28;20233;-77
2022/02/18 13:12:22;;;;;;;9.98;3.80;;;16.80;94.20;;;;;;5052321;28;20045;-77
2022/02/18 13:15:30;;;;;;;12.63;3.90;;;16.80;94.10;;;;;;5051160;28;20056;-77
2022/02/18 13:18:36;;;;;;;10.77;3.25;;;16.80;94.20;;;;;;5051310;28;20437;-79
2022/02/18 13:21:40;;;;;;;10.00;3.20;;;16.80;94.30;;;;;;5052038;28;20075;-78
2022/02/18 13:24:44;;;;;;;11.80;3.38;;;16.80;94.00;;;;;;5050979;28;20068;-77
2022/02/18 13:27:49;;;;;;;15.80;5.30;;;16.80;93.90;;;;;;5052051;28;20048;-76
2022/02/18 13:30:55;;;;;;;23.88;6.55;;;16.80;93.90;;;;;;5052052;28;20048;-80
2022/02/18 13:33:59;;;;;;;8.18;4.20;;;16.80;93.90;;;;;;5051377;28;20048;-79
2022/02/18 13:37:14;;;;;;;18.10;3.83;;;16.80;93.80;;;;;;5051821;28;20048;-81
2022/02/18 13:40:18;;;;;;;16.08;3.83;;;16.80;93.70;;;;;;5051692;28;20044;-82
2022/02/18 13:43:30;;;;;;;29.35;16.77;;;16.80;93.80;;;;;;5051654;28;20052;-84
2022/02/18 13:46:35;;;;;;;16.35;6.85;;;16.80;93.70;;;;;;5051847;28;20048;-82
2022/02/18 13:49:39;;;;;;;12.32;4.40;;;16.70;93.80;;;;;;5050456;28;20143;-81
2022/02/18 13:52:43;;;;;;;8.23;3.80;;;16.70;93.80;;;;;;5051757;28;20048;-77
2022/02/18 13:55:47;;;;;;;16.10;4.18;;;16.70;93.90;;;;;;5051401;28;20052;-87
2022/02/18 13:58:53;;;;;;;16.23;4.60;;;16.70;93.90;;;;;;5052361;28;20044;-75
2022/02/18 14:02:12;;;;;;;13.23;3.08;;;16.70;93.90;;;;;;5051296;28;20063;-82
2022/02/18 14:05:26;;;;;;;20.35;3.75;;;16.60;93.90;;;;;;5051746;28;20068;-85
2022/02/18 14:08:32;;;;;;;10.90;3.92;;;16.60;93.90;;;;;;5050483;28;20078;-79
2022/02/18 14:11:49;;;;;;;9.55;3.30;;;16.60;94.00;;;;;;5051292;28;20040;-76
2022/02/18 14:15:01;;;;;;;11.65;3.50;;;16.50;94.20;;;;;;5050306;28;20056;-78
2022/02/18 14:18:10;;;;;;;20.70;3.28;;;16.50;94.10;;;;;;5050299;28;20119;-81
2022/02/18 14:21:20;;;;;;;16.92;2.90;;;16.50;94.20;;;;;;5050874;28;20116;-81
2022/02/18 14:24:32;;;;;;;13.45;2.83;;;16.50;94.10;;;;;;5050323;28;20419;-79
2022/02/18 14:27:36;;;;;;;10.93;3.55;;;16.50;94.20;;;;;;5050996;28;20209;-79
2022/02/18 14:30:45;;;;;;;14.45;5.65;;;16.50;94.30;;;;;;5050942;28;20348;-78
2022/02/18 14:34:01;;;;;;;9.77;3.67;;;16.60;94.30;;;;;;5049998;28;20043;-77
2022/02/18 14:37:05;;;;;;;10.25;3.45;;;16.60;94.20;;;;;;5049530;28;20067;-78
2022/02/18 14:40:19;;;;;;;23.05;5.07;;;16.60;94.30;;;;;;5050960;28;20060;-80
2022/02/18 14:43:23;;;;;;;20.60;6.55;;;16.50;94.30;;;;;;5050736;28;20056;-77
2022/02/18 14:46:28;;;;;;;17.75;4.97;;;16.50;94.30;;;;;;5050565;28;20100;-79
2022/02/18 14:49:33;;;;;;;18.35;3.33;;;16.40;94.30;;;;;;5050857;28;20531;-79
2022/02/18 14:52:37;;;;;;;17.13;3.97;;;16.40;94.30;;;;;;5050495;28;20048;-76
2022/02/18 14:55:44;;;;;;;11.30;3.40;;;16.40;94.50;;;;;;5050668;28;20052;-82
2022/02/18 14:58:51;;;;;;;16.13;3.85;;;16.40;94.40;;;;;;5050754;28;20040;-80
2022/02/18 15:01:55;;;;;;;10.73;3.00;;;16.40;94.30;;;;;;5050039;28;20432;-77
2022/02/18 15:04:59;;;;;;;21.38;3.30;;;16.30;94.30;;;;;;5049620;28;20044;-78
2022/02/18 15:08:07;;;;;;;17.77;3.40;;;16.40;94.40;;;;;;5050283;28;20063;-78
2022/02/18 15:11:12;;;;;;;15.45;2.97;;;16.30;94.70;;;;;;5050460;28;20072;-80
2022/02/18 15:14:16;;;;;;;12.20;2.63;;;16.30;94.50;;;;;;5050447;28;20048;-81
2022/02/18 15:17:21;;;;;;;16.73;3.30;;;16.30;94.50;;;;;;5049271;28;20048;-88
2022/02/18 15:20:26;;;;;;;13.50;3.08;;;16.30;94.60;;;;;;5050371;28;20146;-75
2022/02/18 15:23:31;;;;;;;11.77;3.13;;;16.30;94.60;;;;;;5050230;28;20501;-76
2022/02/18 15:26:35;;;;;;;20.60;2.97;;;16.20;94.60;;;;;;5050084;28;20052;-76
2022/02/18 15:36:23;;;;;;;15.20;2.75;;;16.20;94.40;;;;;;5049003;28;20511;-74
2022/02/18 15:42:50;;;;;;;16.52;4.68;;;16.20;94.30;;;;;;5050259;28;20048;-87
2022/02/18 15:45:54;;;;;;;23.17;7.25;;;16.10;94.50;;;;;;5049850;28;20040;-84
2022/02/18 15:48:59;;;;;;;19.92;4.90;;;16.10;94.50;;;;;;5051302;28;20048;-80
2022/02/18 15:52:04;;;;;;;45.25;6.38;;;16.10;94.60;;;;;;5052546;28;20091;-73
2022/02/18 15:55:09;;;;;;;29.85;8.43;;;16.00;94.90;;;;;;5053002;28;20063;-79
2022/02/18 15:58:14;;;;;;;17.15;4.20;;;16.00;95.00;;;;;;5053889;28;20063;-82
2022/02/18 16:01:17;;;;;;;19.63;4.82;;;15.90;95.20;;;;;;5052111;28;20104;-83
2022/02/18 16:04:35;;;;;;;44.58;13.15;;;15.90;95.40;;;;;;5052043;28;20035;-83